This is the latest recevied weather packets stored in our database for station/object W5HKR. If no packets are shown the sender has not sent any weather packets the latest 10 day(s).
| Time | Temp. | Humidity | Pressure | Rain* | Wind** | Luminosity | Snow |
|---|---|---|---|---|---|---|---|
| 1777601073 | 18.33° C | 91% | 990.6 hPa | 0 mm | - | - | - |
| 1777601002 | 21.67° C | 80% | 982.1 hPa | 0 mm | - | - | - |
| 1777587034 | 18.33° C | 91% | 990.6 hPa | 0 mm | - | - | - |
| 1777586003 | 24.44° C | 71% | 981.4 hPa | 0 mm | - | - | - |
| 1777583794 | 18.33° C | 91% | 990.6 hPa | 0 mm | - | - | - |
| 1777581501 | 18.33° C | 91% | 990.6 hPa | 0 mm | - | - | - |
| 1777581202 | 18.33° C | 91% | 990.6 hPa | 0 mm | - | - | - |
| 1777580554 | 18.33° C | 91% | 990.6 hPa | 0 mm | - | - | - |
| 1777580302 | 18.33° C | 91% | 990.6 hPa | 0 mm | - | - | - |
| 1777579474 | 18.33° C | 91% | 990.6 hPa | 0 mm | - | - | - |
| 1777577904 | 18.33° C | 91% | 990.6 hPa | 0 mm | - | - | - |
| 1777577301 | 18.33° C | 91% | 990.6 hPa | 0 mm | - | - | - |
| 1777576702 | 22.78° C | 77% | 982.8 hPa | 0 mm | - | - | - |
| 1777576233 | 18.33° C | 91% | 990.6 hPa | 0 mm | - | - | - |
| 1777573101 | 18.33° C | 91% | 990.6 hPa | 0 mm | - | - | - |
| 1777572502 | 22.78° C | 77% | 983.1 hPa | 0 mm | - | - | - |
| 1777568302 | 18.33° C | 91% | 990.6 hPa | 0 mm | - | - | - |
| 1777565602 | 18.33° C | 91% | 990.6 hPa | 0 mm | - | - | - |
| 1777565436 | 18.33° C | 91% | 990.6 hPa | 0 mm | - | - | - |
| 1777565302 | 18.33° C | 91% | 990.6 hPa | 0 mm | - | - | - |
| 1777565003 | 20° C | 84% | 984.8 hPa | 0 mm | - | - | - |
| 1777563502 | 20° C | 84% | 984.2 hPa | 0 mm | - | - | - |
| 1777563275 | 20° C | 84% | 984.4 hPa | 0 mm | - | - | - |
| 1777562602 | 20.56° C | 84% | 983.9 hPa | 0 mm | - | - | - |
| 1777562303 | 18.33° C | 91% | 990.6 hPa | 0 mm | - | - | - |
* Rain latest hour (hover to see other rain measurements)
** Current wind speed in m/s (hover to see current wind gust speed)